KZR854 UACC-UAAA
Flight info
| Callsign | KZR854 |
|---|---|
| Flight time | 1h 21m |
| Altitude | 41000 |
| Route | BEDKA T523 KRG W333 ETEDA |
| Aircraft | A359/H-SDE2E3GHIJ3J4J5LM1ORWXY/LB1D1 |
Departure
| Time | 2026-04-27 16:55 |
|---|---|
| Airport | Nursultan Nazarbayev International Airport (UACC) |
Arrival
| Time | 2026-04-27 18:17 |
|---|---|
| Airport | Almaty International Airport (UAAA) |
| Time | Latitude | Longitude | Altitude | Speed | Heading |
|---|---|---|---|---|---|
| 2026-04-27 16:16 | 51.02607 | 71.46084 | 1179 ft | 0 kts | 358° |
| 2026-04-27 16:43 | 51.02605 | 71.46084 | 1179 ft | 2 kts | 358° |
| 2026-04-27 16:44 | 51.02590 | 71.46085 | 1179 ft | 2 kts | 358° |
| 2026-04-27 16:44 | 51.02575 | 71.46085 | 1179 ft | 2 kts | 358° |
| 2026-04-27 16:44 | 51.02560 | 71.46085 | 1179 ft | 2 kts | 358° |
| 2026-04-27 16:44 | 51.02545 | 71.46086 | 1179 ft | 2 kts | 359° |
| 2026-04-27 16:45 | 51.02530 | 71.46083 | 1179 ft | 2 kts | 23° |
| 2026-04-27 16:45 | 51.02518 | 71.46071 | 1179 ft | 2 kts | 44° |
| 2026-04-27 16:45 | 51.02509 | 71.46053 | 1179 ft | 2 kts | 64° |
| 2026-04-27 16:45 | 51.02504 | 71.46030 | 1179 ft | 2 kts | 84° |
| 2026-04-27 16:46 | 51.02505 | 71.46006 | 1179 ft | 2 kts | 105° |
| 2026-04-27 16:46 | 51.02511 | 71.45985 | 1179 ft | 2 kts | 125° |
| 2026-04-27 16:46 | 51.02516 | 71.45975 | 1179 ft | 1 kts | 135° |
| 2026-04-27 16:46 | 51.02518 | 71.45972 | 1179 ft | 0 kts | 135° |
| 2026-04-27 16:49 | 51.02511 | 71.45983 | 1179 ft | 7 kts | 133° |
| 2026-04-27 16:49 | 51.02454 | 71.46077 | 1179 ft | 12 kts | 133° |
| 2026-04-27 16:49 | 51.02388 | 71.46183 | 1179 ft | 14 kts | 134° |
| 2026-04-27 16:50 | 51.02350 | 71.46253 | 1179 ft | 5 kts | 111° |
| 2026-04-27 16:50 | 51.02365 | 71.46324 | 1179 ft | 9 kts | 51° |
| 2026-04-27 16:50 | 51.02420 | 71.46410 | 1179 ft | 12 kts | 44° |
| 2026-04-27 16:50 | 51.02496 | 71.46527 | 1179 ft | 17 kts | 45° |
| 2026-04-27 16:51 | 51.02574 | 71.46652 | 1179 ft | 16 kts | 44° |
| 2026-04-27 16:51 | 51.02661 | 71.46786 | 1179 ft | 17 kts | 44° |
| 2026-04-27 16:51 | 51.02745 | 71.46917 | 1179 ft | 16 kts | 44° |
| 2026-04-27 16:51 | 51.02827 | 71.47047 | 1179 ft | 17 kts | 45° |
| 2026-04-27 16:52 | 51.02917 | 71.47187 | 1179 ft | 18 kts | 44° |
| 2026-04-27 16:52 | 51.03013 | 71.47337 | 1179 ft | 20 kts | 44° |
| 2026-04-27 16:52 | 51.03115 | 71.47495 | 1179 ft | 21 kts | 44° |
| 2026-04-27 16:52 | 51.03210 | 71.47643 | 1179 ft | 17 kts | 44° |
| 2026-04-27 16:53 | 51.03298 | 71.47781 | 1179 ft | 18 kts | 44° |
| 2026-04-27 16:53 | 51.03379 | 71.47907 | 1179 ft | 13 kts | 44° |
| 2026-04-27 16:53 | 51.03423 | 71.48002 | 1179 ft | 11 kts | 68° |
| 2026-04-27 16:53 | 51.03432 | 71.48132 | 1179 ft | 12 kts | 90° |
| 2026-04-27 16:54 | 51.03420 | 71.48271 | 1179 ft | 13 kts | 116° |
| 2026-04-27 16:54 | 51.03366 | 71.48331 | 1179 ft | 9 kts | 187° |
| 2026-04-27 16:54 | 51.03319 | 71.48278 | 1179 ft | 0 kts | 223° |
| 2026-04-27 16:54 | 51.03319 | 71.48277 | 1179 ft | 0 kts | 223° |
| 2026-04-27 16:55 | 51.03274 | 71.48209 | 1179 ft | 37 kts | 224° |
| 2026-04-27 16:55 | 51.02910 | 71.47639 | 1179 ft | 108 kts | 224° |
| 2026-04-27 16:55 | 51.02227 | 71.46571 | 1186 ft | 165 kts | 224° |
| 2026-04-27 16:55 | 51.01400 | 71.45273 | 1829 ft | 167 kts | 225° |
| 2026-04-27 16:56 | 51.00597 | 71.43989 | 2564 ft | 166 kts | 225° |
| 2026-04-27 16:56 | 50.99812 | 71.42744 | 3271 ft | 165 kts | 223° |
| 2026-04-27 16:56 | 50.98779 | 71.41908 | 3620 ft | 176 kts | 177° |
| 2026-04-27 16:56 | 50.97681 | 71.42624 | 4060 ft | 179 kts | 140° |
| 2026-04-27 16:57 | 50.96708 | 71.43963 | 4447 ft | 192 kts | 136° |
| 2026-04-27 16:57 | 50.95677 | 71.45404 | 4821 ft | 207 kts | 138° |
| 2026-04-27 16:57 | 50.94511 | 71.46920 | 5212 ft | 223 kts | 140° |
| 2026-04-27 16:57 | 50.93241 | 71.48469 | 5601 ft | 242 kts | 142° |
| 2026-04-27 16:58 | 50.91836 | 71.50108 | 6088 ft | 259 kts | 143° |
| 2026-04-27 16:58 | 50.90334 | 71.51818 | 6642 ft | 273 kts | 143° |
| 2026-04-27 16:58 | 50.88769 | 71.53568 | 7423 ft | 279 kts | 144° |
| 2026-04-27 16:58 | 50.87189 | 71.55313 | 8250 ft | 283 kts | 144° |
| 2026-04-27 16:59 | 50.85551 | 71.57119 | 9084 ft | 288 kts | 144° |
| 2026-04-27 16:59 | 50.83916 | 71.58925 | 9900 ft | 292 kts | 144° |
| 2026-04-27 16:59 | 50.82245 | 71.60769 | 10623 ft | 300 kts | 144° |
| 2026-04-27 16:59 | 50.80490 | 71.62705 | 11111 ft | 317 kts | 144° |
| 2026-04-27 17:00 | 50.77382 | 71.66137 | 12101 ft | 336 kts | 145° |
| 2026-04-27 17:00 | 50.74824 | 71.68974 | 13111 ft | 343 kts | 145° |
| 2026-04-27 17:00 | 50.72854 | 71.71155 | 13874 ft | 348 kts | 145° |
| 2026-04-27 17:01 | 50.70871 | 71.73342 | 14617 ft | 352 kts | 145° |
| 2026-04-27 17:01 | 50.68867 | 71.75547 | 15329 ft | 357 kts | 145° |
| 2026-04-27 17:01 | 50.66825 | 71.77789 | 16031 ft | 361 kts | 145° |
| 2026-04-27 17:01 | 50.64779 | 71.80032 | 16703 ft | 366 kts | 145° |
| 2026-04-27 17:02 | 50.62572 | 71.82449 | 17409 ft | 370 kts | 145° |
| 2026-04-27 17:02 | 50.60390 | 71.84834 | 18077 ft | 375 kts | 145° |
| 2026-04-27 17:02 | 50.58170 | 71.87260 | 18745 ft | 380 kts | 145° |
| 2026-04-27 17:02 | 50.55971 | 71.89658 | 19407 ft | 384 kts | 145° |
| 2026-04-27 17:03 | 50.53701 | 71.92133 | 20087 ft | 387 kts | 145° |
| 2026-04-27 17:03 | 50.51403 | 71.94635 | 20766 ft | 391 kts | 145° |
| 2026-04-27 17:03 | 50.49148 | 71.97086 | 21413 ft | 394 kts | 145° |
| 2026-04-27 17:03 | 50.46869 | 71.99561 | 22048 ft | 398 kts | 145° |
| 2026-04-27 17:04 | 50.44591 | 72.02032 | 22661 ft | 402 kts | 145° |
| 2026-04-27 17:04 | 50.42296 | 72.04519 | 23269 ft | 405 kts | 145° |
| 2026-04-27 17:04 | 50.39973 | 72.07034 | 23865 ft | 409 kts | 145° |
| 2026-04-27 17:04 | 50.37638 | 72.09560 | 24469 ft | 411 kts | 145° |
| 2026-04-27 17:05 | 50.35309 | 72.12077 | 25050 ft | 414 kts | 145° |
| 2026-04-27 17:05 | 50.32912 | 72.14666 | 25639 ft | 416 kts | 145° |
| 2026-04-27 17:05 | 50.30535 | 72.17229 | 26177 ft | 419 kts | 145° |
| 2026-04-27 17:05 | 50.28947 | 72.18936 | 26524 ft | 421 kts | 145° |
| 2026-04-27 17:06 | 50.25733 | 72.22390 | 27187 ft | 425 kts | 145° |
| 2026-04-27 17:06 | 50.23379 | 72.25168 | 27653 ft | 428 kts | 139° |
| 2026-04-27 17:06 | 50.21232 | 72.28397 | 28126 ft | 430 kts | 131° |
| 2026-04-27 17:06 | 50.19344 | 72.32010 | 28592 ft | 432 kts | 126° |
| 2026-04-27 17:07 | 50.17549 | 72.35797 | 29048 ft | 435 kts | 125° |
| 2026-04-27 17:07 | 50.15781 | 72.39583 | 29469 ft | 437 kts | 125° |
| 2026-04-27 17:07 | 50.13995 | 72.43401 | 29878 ft | 440 kts | 125° |
| 2026-04-27 17:07 | 50.12166 | 72.47289 | 30297 ft | 442 kts | 126° |
| 2026-04-27 17:08 | 50.10364 | 72.51101 | 30680 ft | 444 kts | 126° |
| 2026-04-27 17:08 | 50.08527 | 72.54972 | 31014 ft | 445 kts | 126° |
| 2026-04-27 17:08 | 50.06676 | 72.58862 | 31317 ft | 448 kts | 126° |
| 2026-04-27 17:08 | 50.04843 | 72.62707 | 31597 ft | 451 kts | 126° |
| 2026-04-27 17:09 | 50.04704 | 72.62999 | 31617 ft | 451 kts | 126° |
| 2026-04-27 17:10 | 50.02560 | 72.67490 | 31915 ft | 454 kts | 127° |
| 2026-04-27 17:10 | 50.00668 | 72.71460 | 32174 ft | 457 kts | 127° |
| 2026-04-27 17:10 | 49.98771 | 72.75431 | 32451 ft | 459 kts | 127° |
| 2026-04-27 17:10 | 49.96875 | 72.79388 | 32700 ft | 462 kts | 127° |
| 2026-04-27 17:11 | 49.94961 | 72.83375 | 32946 ft | 464 kts | 127° |
| 2026-04-27 17:11 | 49.91092 | 72.91409 | 33426 ft | 469 kts | 127° |
| 2026-04-27 17:11 | 49.89131 | 72.95467 | 33684 ft | 471 kts | 127° |
| 2026-04-27 17:12 | 49.85161 | 73.03611 | 34142 ft | 475 kts | 127° |
| 2026-04-27 17:12 | 49.83173 | 73.07692 | 34359 ft | 477 kts | 127° |
| 2026-04-27 17:12 | 49.81170 | 73.11810 | 34526 ft | 479 kts | 128° |
| 2026-04-27 17:13 | 49.79190 | 73.15881 | 34718 ft | 479 kts | 127° |
| 2026-04-27 17:13 | 49.77179 | 73.20012 | 34935 ft | 479 kts | 128° |
| 2026-04-27 17:13 | 49.75182 | 73.24103 | 35138 ft | 479 kts | 128° |
| 2026-04-27 17:13 | 49.73092 | 73.28101 | 35322 ft | 479 kts | 133° |
| 2026-04-27 17:14 | 49.70777 | 73.31784 | 35529 ft | 479 kts | 138° |
| 2026-04-27 17:14 | 49.68255 | 73.35121 | 35725 ft | 478 kts | 144° |
| 2026-04-27 17:14 | 49.65551 | 73.38077 | 35936 ft | 477 kts | 149° |
| 2026-04-27 17:14 | 49.62689 | 73.40632 | 36181 ft | 475 kts | 154° |
| 2026-04-27 17:15 | 49.59727 | 73.42752 | 36421 ft | 474 kts | 160° |
| 2026-04-27 17:15 | 49.56639 | 73.44631 | 36673 ft | 474 kts | 161° |
| 2026-04-27 17:15 | 49.53581 | 73.46450 | 36901 ft | 474 kts | 161° |
| 2026-04-27 17:15 | 49.50507 | 73.48275 | 37120 ft | 475 kts | 161° |
| 2026-04-27 17:16 | 49.47430 | 73.50108 | 37329 ft | 475 kts | 161° |
| 2026-04-27 17:16 | 49.44358 | 73.51942 | 37560 ft | 475 kts | 161° |
| 2026-04-27 17:16 | 49.41299 | 73.53774 | 37784 ft | 475 kts | 161° |
| 2026-04-27 17:16 | 49.38232 | 73.55610 | 37986 ft | 476 kts | 161° |
| 2026-04-27 17:17 | 49.35161 | 73.57449 | 38185 ft | 476 kts | 161° |
| 2026-04-27 17:17 | 49.32074 | 73.59295 | 38401 ft | 476 kts | 161° |
| 2026-04-27 17:17 | 49.29001 | 73.61131 | 38600 ft | 476 kts | 161° |
| 2026-04-27 17:18 | 49.22844 | 73.64802 | 38957 ft | 476 kts | 161° |
| 2026-04-27 17:18 | 49.19742 | 73.66657 | 39169 ft | 476 kts | 161° |
| 2026-04-27 17:18 | 49.16684 | 73.68491 | 39366 ft | 475 kts | 161° |
| 2026-04-27 17:18 | 49.13636 | 73.70312 | 39536 ft | 475 kts | 161° |
| 2026-04-27 17:19 | 49.10553 | 73.72146 | 39678 ft | 476 kts | 161° |
| 2026-04-27 17:19 | 49.07471 | 73.73972 | 39788 ft | 477 kts | 162° |
| 2026-04-27 17:19 | 49.04396 | 73.75792 | 39917 ft | 478 kts | 161° |
| 2026-04-27 17:19 | 49.01305 | 73.77616 | 40049 ft | 478 kts | 161° |
| 2026-04-27 17:20 | 48.98195 | 73.79447 | 40179 ft | 478 kts | 161° |
| 2026-04-27 17:20 | 48.95114 | 73.81250 | 40306 ft | 479 kts | 162° |
| 2026-04-27 17:20 | 48.92008 | 73.83058 | 40435 ft | 479 kts | 162° |
| 2026-04-27 17:20 | 48.88905 | 73.84862 | 40553 ft | 479 kts | 162° |
| 2026-04-27 17:21 | 48.85764 | 73.86681 | 40669 ft | 479 kts | 162° |
| 2026-04-27 17:21 | 48.82680 | 73.88467 | 40787 ft | 479 kts | 161° |
| 2026-04-27 17:21 | 48.76448 | 73.92076 | 40963 ft | 481 kts | 162° |
| 2026-04-27 17:22 | 48.70213 | 73.95685 | 41128 ft | 482 kts | 162° |
| 2026-04-27 17:22 | 48.63981 | 73.99284 | 41264 ft | 483 kts | 162° |
| 2026-04-27 17:23 | 48.57703 | 74.02902 | 41272 ft | 483 kts | 162° |
| 2026-04-27 17:23 | 48.51432 | 74.06503 | 41273 ft | 483 kts | 162° |
| 2026-04-27 17:24 | 48.45209 | 74.10069 | 41272 ft | 483 kts | 162° |
| 2026-04-27 17:24 | 48.38950 | 74.13649 | 41271 ft | 482 kts | 162° |
| 2026-04-27 17:25 | 48.32682 | 74.17223 | 41272 ft | 482 kts | 162° |
| 2026-04-27 17:25 | 48.26414 | 74.20790 | 41264 ft | 481 kts | 162° |
| 2026-04-27 17:26 | 48.20196 | 74.24324 | 41254 ft | 481 kts | 162° |
| 2026-04-27 17:26 | 48.13963 | 74.27852 | 41250 ft | 481 kts | 162° |
| 2026-04-27 17:27 | 48.07701 | 74.31406 | 41252 ft | 481 kts | 162° |
| 2026-04-27 17:27 | 48.01489 | 74.34947 | 41245 ft | 480 kts | 162° |
| 2026-04-27 17:28 | 47.95294 | 74.38474 | 41248 ft | 480 kts | 162° |
| 2026-04-27 17:29 | 47.85903 | 74.43802 | 41244 ft | 479 kts | 162° |
| 2026-04-27 17:29 | 47.79691 | 74.47304 | 41243 ft | 479 kts | 162° |
| 2026-04-27 17:30 | 47.73470 | 74.50816 | 41234 ft | 479 kts | 162° |
| 2026-04-27 17:30 | 47.64158 | 74.56066 | 41241 ft | 479 kts | 162° |
| 2026-04-27 17:31 | 47.57949 | 74.59558 | 41240 ft | 478 kts | 162° |
| 2026-04-27 17:31 | 47.51770 | 74.63013 | 41231 ft | 478 kts | 162° |
| 2026-04-27 17:32 | 47.42455 | 74.68249 | 41224 ft | 477 kts | 162° |
| 2026-04-27 17:33 | 47.36292 | 74.71722 | 41223 ft | 476 kts | 163° |
| 2026-04-27 17:33 | 47.30116 | 74.75182 | 41215 ft | 476 kts | 163° |
| 2026-04-27 17:34 | 47.23948 | 74.78620 | 41217 ft | 476 kts | 163° |
| 2026-04-27 17:34 | 47.17749 | 74.82072 | 41215 ft | 475 kts | 163° |
| 2026-04-27 17:35 | 47.11598 | 74.85487 | 41203 ft | 475 kts | 163° |
| 2026-04-27 17:35 | 47.05422 | 74.88906 | 41199 ft | 475 kts | 163° |
| 2026-04-27 17:36 | 46.99265 | 74.92306 | 41201 ft | 475 kts | 163° |
| 2026-04-27 17:36 | 46.93108 | 74.95702 | 41204 ft | 475 kts | 163° |
| 2026-04-27 17:37 | 46.86931 | 74.99206 | 41200 ft | 477 kts | 160° |
| 2026-04-27 17:37 | 46.80865 | 75.03043 | 41188 ft | 477 kts | 160° |
| 2026-04-27 17:38 | 46.74790 | 75.06882 | 41185 ft | 477 kts | 160° |
| 2026-04-27 17:38 | 46.68709 | 75.10723 | 41181 ft | 477 kts | 160° |
| 2026-04-27 17:39 | 46.62658 | 75.14542 | 41175 ft | 477 kts | 160° |
| 2026-04-27 17:39 | 46.56579 | 75.18370 | 41172 ft | 477 kts | 160° |
| 2026-04-27 17:40 | 46.50488 | 75.22195 | 41167 ft | 478 kts | 161° |
| 2026-04-27 17:40 | 46.45593 | 75.25266 | 41160 ft | 478 kts | 160° |
| 2026-04-27 17:41 | 46.39474 | 75.29095 | 41164 ft | 478 kts | 160° |
| 2026-04-27 17:41 | 46.33406 | 75.32886 | 41162 ft | 478 kts | 160° |
| 2026-04-27 17:42 | 46.27303 | 75.36694 | 41158 ft | 478 kts | 161° |
| 2026-04-27 17:42 | 46.21242 | 75.40457 | 41145 ft | 478 kts | 161° |
| 2026-04-27 17:43 | 46.15104 | 75.44270 | 41154 ft | 478 kts | 160° |
| 2026-04-27 17:43 | 46.09025 | 75.48052 | 41146 ft | 479 kts | 160° |
| 2026-04-27 17:44 | 46.02908 | 75.51856 | 41145 ft | 479 kts | 160° |
| 2026-04-27 17:44 | 45.96802 | 75.55644 | 41153 ft | 479 kts | 161° |
| 2026-04-27 17:45 | 45.90680 | 75.59435 | 41144 ft | 480 kts | 161° |
| 2026-04-27 17:45 | 45.84553 | 75.63209 | 41151 ft | 480 kts | 161° |
| 2026-04-27 17:46 | 45.78428 | 75.66994 | 41145 ft | 479 kts | 161° |
| 2026-04-27 17:46 | 45.72347 | 75.70755 | 41149 ft | 478 kts | 161° |
| 2026-04-27 17:47 | 45.65934 | 75.74674 | 41135 ft | 479 kts | 161° |
| 2026-04-27 17:47 | 45.59807 | 75.78408 | 41142 ft | 478 kts | 161° |
| 2026-04-27 17:48 | 45.53676 | 75.82147 | 41137 ft | 479 kts | 161° |
| 2026-04-27 17:48 | 45.47576 | 75.85857 | 41128 ft | 479 kts | 161° |
| 2026-04-27 17:49 | 45.41461 | 75.89571 | 41142 ft | 479 kts | 161° |
| 2026-04-27 17:49 | 45.35363 | 75.93263 | 41137 ft | 479 kts | 161° |
| 2026-04-27 17:50 | 45.29228 | 75.96970 | 41138 ft | 478 kts | 161° |
| 2026-04-27 17:50 | 45.20082 | 76.02483 | 41132 ft | 479 kts | 162° |
| 2026-04-27 17:51 | 45.13948 | 76.06166 | 41128 ft | 480 kts | 161° |
| 2026-04-27 17:51 | 45.07790 | 76.09856 | 41140 ft | 480 kts | 162° |
| 2026-04-27 17:52 | 45.01711 | 76.13496 | 40374 ft | 476 kts | 162° |
| 2026-04-27 17:52 | 44.98656 | 76.15321 | 38917 ft | 484 kts | 162° |
| 2026-04-27 17:52 | 44.96596 | 76.16548 | 37589 ft | 488 kts | 162° |
| 2026-04-27 17:53 | 44.92444 | 76.19022 | 35436 ft | 489 kts | 162° |
| 2026-04-27 17:53 | 44.89317 | 76.20886 | 34229 ft | 488 kts | 163° |
| 2026-04-27 17:53 | 44.86236 | 76.22711 | 33051 ft | 482 kts | 163° |
| 2026-04-27 17:53 | 44.83201 | 76.24510 | 32472 ft | 464 kts | 163° |
| 2026-04-27 17:54 | 44.80253 | 76.26258 | 31577 ft | 457 kts | 163° |
| 2026-04-27 17:54 | 44.77380 | 76.27956 | 30501 ft | 452 kts | 163° |
| 2026-04-27 17:54 | 44.74507 | 76.29652 | 29525 ft | 445 kts | 163° |
| 2026-04-27 17:54 | 44.71700 | 76.31311 | 28572 ft | 437 kts | 163° |
| 2026-04-27 17:55 | 44.68929 | 76.32945 | 27664 ft | 429 kts | 163° |
| 2026-04-27 17:55 | 44.66207 | 76.34552 | 27341 ft | 419 kts | 164° |
| 2026-04-27 17:55 | 44.63472 | 76.35770 | 26725 ft | 415 kts | 172° |
| 2026-04-27 17:55 | 44.60658 | 76.36650 | 26020 ft | 412 kts | 173° |
| 2026-04-27 17:56 | 44.57867 | 76.37475 | 25315 ft | 410 kts | 173° |
| 2026-04-27 17:56 | 44.55097 | 76.38315 | 24681 ft | 407 kts | 173° |
| 2026-04-27 17:56 | 44.52365 | 76.39166 | 24040 ft | 404 kts | 172° |
| 2026-04-27 17:56 | 44.49624 | 76.40041 | 23401 ft | 401 kts | 172° |
| 2026-04-27 17:57 | 44.46937 | 76.40908 | 22792 ft | 397 kts | 171° |
| 2026-04-27 17:57 | 44.44272 | 76.41775 | 22181 ft | 394 kts | 171° |
| 2026-04-27 17:57 | 44.41632 | 76.42639 | 21566 ft | 391 kts | 171° |
| 2026-04-27 17:57 | 44.38975 | 76.43511 | 20943 ft | 389 kts | 171° |
| 2026-04-27 17:58 | 44.36367 | 76.44367 | 20340 ft | 386 kts | 170° |
| 2026-04-27 17:58 | 44.33782 | 76.45216 | 19742 ft | 383 kts | 170° |
| 2026-04-27 17:58 | 44.31193 | 76.46067 | 19132 ft | 380 kts | 170° |
| 2026-04-27 17:58 | 44.28648 | 76.46903 | 18534 ft | 378 kts | 169° |
| 2026-04-27 17:59 | 44.26089 | 76.47742 | 17971 ft | 374 kts | 169° |
| 2026-04-27 17:59 | 44.23583 | 76.48567 | 17514 ft | 368 kts | 169° |
| 2026-04-27 17:59 | 44.21138 | 76.49371 | 17111 ft | 361 kts | 169° |
| 2026-04-27 17:59 | 44.18700 | 76.50172 | 16738 ft | 354 kts | 169° |
| 2026-04-27 18:00 | 44.16347 | 76.50943 | 16389 ft | 348 kts | 169° |
| 2026-04-27 18:00 | 44.13996 | 76.51711 | 16035 ft | 342 kts | 169° |
| 2026-04-27 18:00 | 44.11717 | 76.52456 | 15694 ft | 337 kts | 168° |
| 2026-04-27 18:00 | 44.09459 | 76.53194 | 15359 ft | 332 kts | 168° |
| 2026-04-27 18:01 | 44.07214 | 76.53926 | 15026 ft | 327 kts | 168° |
| 2026-04-27 18:01 | 44.05016 | 76.54642 | 14704 ft | 327 kts | 168° |
| 2026-04-27 18:01 | 44.02814 | 76.55358 | 14383 ft | 326 kts | 168° |
| 2026-04-27 18:01 | 44.00600 | 76.56078 | 14055 ft | 324 kts | 167° |
| 2026-04-27 18:02 | 43.98425 | 76.56783 | 13721 ft | 323 kts | 167° |
| 2026-04-27 18:02 | 43.96222 | 76.57499 | 13403 ft | 320 kts | 167° |
| 2026-04-27 18:02 | 43.94076 | 76.58198 | 13108 ft | 318 kts | 167° |
| 2026-04-27 18:02 | 43.91942 | 76.58893 | 12820 ft | 317 kts | 167° |
| 2026-04-27 18:03 | 43.89788 | 76.59592 | 12484 ft | 316 kts | 167° |
| 2026-04-27 18:03 | 43.87637 | 76.60286 | 12172 ft | 314 kts | 167° |
| 2026-04-27 18:03 | 43.85534 | 76.60961 | 11862 ft | 312 kts | 167° |
| 2026-04-27 18:03 | 43.83406 | 76.61647 | 11546 ft | 310 kts | 166° |
| 2026-04-27 18:04 | 43.81323 | 76.62319 | 11262 ft | 308 kts | 166° |
| 2026-04-27 18:04 | 43.79253 | 76.62987 | 10948 ft | 306 kts | 166° |
| 2026-04-27 18:04 | 43.77184 | 76.63654 | 10656 ft | 304 kts | 166° |
| 2026-04-27 18:04 | 43.75119 | 76.64319 | 10330 ft | 302 kts | 166° |
| 2026-04-27 18:05 | 43.73106 | 76.64970 | 10161 ft | 293 kts | 166° |
| 2026-04-27 18:05 | 43.71136 | 76.65614 | 10125 ft | 281 kts | 166° |
| 2026-04-27 18:05 | 43.69273 | 76.66228 | 10099 ft | 273 kts | 166° |
| 2026-04-27 18:05 | 43.67415 | 76.66837 | 9886 ft | 273 kts | 166° |
| 2026-04-27 18:06 | 43.65576 | 76.67435 | 9619 ft | 271 kts | 166° |
| 2026-04-27 18:06 | 43.63738 | 76.68031 | 9378 ft | 270 kts | 166° |
| 2026-04-27 18:06 | 43.61892 | 76.68626 | 9128 ft | 269 kts | 166° |
| 2026-04-27 18:06 | 43.60078 | 76.69208 | 8862 ft | 267 kts | 166° |
| 2026-04-27 18:07 | 43.58260 | 76.69792 | 8615 ft | 266 kts | 166° |
| 2026-04-27 18:07 | 43.56462 | 76.70371 | 8371 ft | 265 kts | 166° |
| 2026-04-27 18:07 | 43.54676 | 76.70944 | 8120 ft | 264 kts | 166° |
| 2026-04-27 18:07 | 43.52896 | 76.71513 | 7876 ft | 263 kts | 167° |
| 2026-04-27 18:08 | 43.51120 | 76.72083 | 7601 ft | 262 kts | 167° |
| 2026-04-27 18:08 | 43.49345 | 76.72649 | 7396 ft | 259 kts | 167° |
| 2026-04-27 18:08 | 43.47585 | 76.73212 | 7167 ft | 258 kts | 166° |
| 2026-04-27 18:08 | 43.45845 | 76.73767 | 6929 ft | 257 kts | 167° |
| 2026-04-27 18:09 | 43.44083 | 76.74331 | 6687 ft | 258 kts | 167° |
| 2026-04-27 18:09 | 43.42300 | 76.74825 | 6396 ft | 268 kts | 176° |
| 2026-04-27 18:09 | 43.40428 | 76.74786 | 6134 ft | 270 kts | 184° |
| 2026-04-27 18:09 | 43.38564 | 76.74564 | 5846 ft | 267 kts | 185° |
| 2026-04-27 18:10 | 43.36718 | 76.74306 | 5599 ft | 265 kts | 185° |
| 2026-04-27 18:10 | 43.34899 | 76.74044 | 5387 ft | 260 kts | 185° |
| 2026-04-27 18:10 | 43.33134 | 76.73781 | 5354 ft | 248 kts | 185° |
| 2026-04-27 18:10 | 43.31462 | 76.73525 | 5343 ft | 236 kts | 185° |
| 2026-04-27 18:11 | 43.29875 | 76.73270 | 5352 ft | 223 kts | 185° |
| 2026-04-27 18:11 | 43.28369 | 76.73017 | 5340 ft | 211 kts | 185° |
| 2026-04-27 18:11 | 43.26932 | 76.72772 | 5352 ft | 208 kts | 185° |
| 2026-04-27 18:11 | 43.25505 | 76.72792 | 5313 ft | 204 kts | 159° |
| 2026-04-27 18:12 | 43.24387 | 76.73885 | 5360 ft | 199 kts | 122° |
| 2026-04-27 18:12 | 43.24009 | 76.75668 | 5363 ft | 199 kts | 85° |
| 2026-04-27 18:12 | 43.24385 | 76.77505 | 5348 ft | 203 kts | 69° |
| 2026-04-27 18:12 | 43.24969 | 76.79289 | 5334 ft | 205 kts | 66° |
| 2026-04-27 18:13 | 43.25577 | 76.81010 | 5325 ft | 198 kts | 65° |
| 2026-04-27 18:13 | 43.26166 | 76.82643 | 5284 ft | 188 kts | 67° |
| 2026-04-27 18:13 | 43.26529 | 76.84335 | 5119 ft | 183 kts | 83° |
| 2026-04-27 18:13 | 43.26786 | 76.86070 | 4817 ft | 186 kts | 74° |
| 2026-04-27 18:14 | 43.27265 | 76.87665 | 4592 ft | 177 kts | 65° |
| 2026-04-27 18:14 | 43.27866 | 76.89079 | 4351 ft | 165 kts | 59° |
| 2026-04-27 18:14 | 43.28482 | 76.90338 | 4139 ft | 153 kts | 58° |
| 2026-04-27 18:14 | 43.29076 | 76.91524 | 3948 ft | 151 kts | 58° |
| 2026-04-27 18:15 | 43.29673 | 76.92705 | 3761 ft | 150 kts | 57° |
| 2026-04-27 18:15 | 43.30266 | 76.93891 | 3579 ft | 150 kts | 59° |
| 2026-04-27 18:15 | 43.30839 | 76.95074 | 3369 ft | 149 kts | 59° |
| 2026-04-27 18:15 | 43.31412 | 76.96265 | 3165 ft | 149 kts | 59° |
| 2026-04-27 18:16 | 43.31982 | 76.97429 | 2968 ft | 148 kts | 58° |
| 2026-04-27 18:16 | 43.32566 | 76.98595 | 2787 ft | 148 kts | 57° |
| 2026-04-27 18:16 | 43.33145 | 76.99765 | 2606 ft | 147 kts | 57° |
| 2026-04-27 18:16 | 43.33711 | 77.00906 | 2416 ft | 145 kts | 57° |
| 2026-04-27 18:17 | 43.34271 | 77.02042 | 2243 ft | 136 kts | 56° |
| 2026-04-27 18:17 | 43.34700 | 77.02912 | 2236 ft | 83 kts | 56° |
| 2026-04-27 18:17 | 43.34926 | 77.03365 | 2236 ft | 35 kts | 56° |
| 2026-04-27 18:17 | 43.35062 | 77.03643 | 2238 ft | 34 kts | 55° |
| 2026-04-27 18:18 | 43.35215 | 77.03885 | 2241 ft | 31 kts | 33° |
| 2026-04-27 18:18 | 43.35338 | 77.03976 | 2241 ft | 14 kts | 26° |
| 2026-04-27 18:18 | 43.35348 | 77.03983 | 2241 ft | 1 kts | 25° |
| 2026-04-27 18:18 | 43.35366 | 77.03995 | 2241 ft | 3 kts | 25° |
| 2026-04-27 18:19 | 43.35397 | 77.04011 | 2240 ft | 5 kts | 10° |
| 2026-04-27 18:19 | 43.35435 | 77.03990 | 2240 ft | 6 kts | 300° |
| 2026-04-27 18:19 | 43.35424 | 77.03915 | 2239 ft | 10 kts | 238° |
| 2026-04-27 18:19 | 43.35364 | 77.03794 | 2238 ft | 21 kts | 236° |
| 2026-04-27 18:20 | 43.35254 | 77.03573 | 2235 ft | 31 kts | 235° |
| 2026-04-27 18:20 | 43.35136 | 77.03334 | 2233 ft | 30 kts | 236° |
| 2026-04-27 18:20 | 43.35018 | 77.03097 | 2232 ft | 27 kts | 236° |
| 2026-04-27 18:20 | 43.34911 | 77.02877 | 2233 ft | 27 kts | 236° |
| 2026-04-27 18:21 | 43.34804 | 77.02665 | 2234 ft | 13 kts | 236° |
| 2026-04-27 18:21 | 43.34771 | 77.02544 | 2235 ft | 14 kts | 268° |
| 2026-04-27 18:21 | 43.34777 | 77.02401 | 2233 ft | 16 kts | 274° |
| 2026-04-27 18:21 | 43.34779 | 77.02361 | 2233 ft | 0 kts | 274° |
| 2026-04-27 18:22 | 43.34779 | 77.02360 | 2233 ft | 1 kts | 274° |
| 2026-04-27 18:23 | 43.34782 | 77.02287 | 2231 ft | 16 kts | 274° |
| 2026-04-27 18:23 | 43.34790 | 77.02115 | 2228 ft | 17 kts | 273° |
| 2026-04-27 18:23 | 43.34797 | 77.01968 | 2229 ft | 15 kts | 274° |
| 2026-04-27 18:23 | 43.34804 | 77.01820 | 2229 ft | 14 kts | 274° |
| 2026-04-27 18:24 | 43.34811 | 77.01677 | 2230 ft | 15 kts | 274° |
| 2026-04-27 18:24 | 43.34817 | 77.01534 | 2230 ft | 9 kts | 267° |
| 2026-04-27 18:24 | 43.34772 | 77.01479 | 2230 ft | 10 kts | 197° |
| 2026-04-27 18:24 | 43.34705 | 77.01451 | 2231 ft | 9 kts | 193° |
| 2026-04-27 18:25 | 43.34640 | 77.01446 | 2233 ft | 8 kts | 168° |
| 2026-04-27 18:25 | 43.34589 | 77.01467 | 2235 ft | 6 kts | 161° |
| 2026-04-27 18:25 | 43.34517 | 77.01508 | 2237 ft | 16 kts | 155° |
| 2026-04-27 18:25 | 43.34449 | 77.01552 | 2239 ft | 4 kts | 161° |
| 2026-04-27 18:26 | 43.34425 | 77.01542 | 2239 ft | 5 kts | 212° |
| 2026-04-27 18:26 | 43.34403 | 77.01492 | 2241 ft | 6 kts | 246° |
| 2026-04-27 18:26 | 43.34396 | 77.01474 | 2241 ft | 0 kts | 245° |